Time;durP1;ratioP1;P1;durP2;ratioP2;P2;SDS_P1;SDS_P2;PMS_P1;PMS_P2;Temp;Humidity;BMP_temperature;BMP_pressure;BME280_temperature;BME280_humidity;BME280_pressure;Samples;Min_cycle;Max_cycle;Signal;HPM_P1;HPM_P2
2021/07/30 00:01:12;;;;;;;;;;;;;;;20.85;63.18;99646.02;1667798;84;20166;-78
2021/07/30 00:03:39;;;;;;;;;;;;;;;20.80;62.64;99641.36;1669418;84;20233;-78
2021/07/30 00:06:05;;;;;;;;;;;;;;;20.78;62.33;99644.79;1667559;84;20413;-77
2021/07/30 00:08:32;;;;;;;;;;;;;;;20.86;62.17;99639.59;1669876;84;21046;-78
2021/07/30 00:10:58;;;;;;;;;;;;;;;21.04;61.47;99643.98;1663707;84;20173;-78
2021/07/30 00:13:24;;;;;;;;;;;;;;;20.92;61.58;99639.17;1667641;84;20304;-78
2021/07/30 00:15:50;;;;;;;;;;;;;;;20.91;61.47;99642.90;1640496;85;20389;-77
2021/07/30 00:18:15;;;;;;;;;;;;;;;20.96;61.37;99640.34;1672176;84;20161;-78
2021/07/30 00:20:41;;;;;;;;;;;;;;;21.03;61.05;99642.34;1669622;84;21107;-76
2021/07/30 00:23:09;;;;;;;;;;;;;;;21.04;60.71;99641.30;1669218;84;20225;-77
2021/07/30 00:25:35;;;;;;;;;;;;;;;21.10;60.92;99639.52;1619063;85;20597;-76
2021/07/30 00:28:02;;;;;;;;;;;;;;;21.07;60.79;99634.12;1673014;84;20341;-75
2021/07/30 00:30:27;;;;;;;;;;;;;;;21.01;60.95;99632.39;1668824;84;20182;-77
2021/07/30 00:32:53;;;;;;;;;;;;;;;21.04;60.84;99637.28;1671724;84;21063;-76
2021/07/30 00:35:19;;;;;;;;;;;;;;;21.14;60.65;99629.41;1668312;84;20164;-77
2021/07/30 00:37:44;;;;;;;;;;;;;;;21.10;60.62;99630.13;1669947;84;20372;-77
2021/07/30 00:40:11;;;;;;;;;;;;;;;21.07;60.97;99632.78;1672355;84;20760;-78
2021/07/30 00:42:50;;;;;;;;;;;;;;;21.04;60.89;99625.73;1670125;84;20186;-77
2021/07/30 00:45:16;;;;;;;;;;;;;;;21.08;61.20;99630.36;1664563;84;22015;-77
2021/07/30 00:47:41;;;;;;;;;;;;;;;21.18;60.64;99628.93;1665296;84;20282;-78
2021/07/30 00:50:07;;;;;;;;;;;;;;;21.16;60.69;99638.06;1666636;85;21224;-77
2021/07/30 00:52:34;;;;;;;;;;;;;;;21.06;61.04;99636.50;1667314;85;20227;-78
2021/07/30 00:55:00;;;;;;;;;;;;;;;20.94;61.62;99637.06;1676699;84;20198;-75
2021/07/30 00:57:25;;;;;;;;;;;;;;;21.01;61.58;99641.78;1692577;84;21092;-78
2021/07/30 00:59:51;;;;;;;;;;;;;;;20.95;61.81;99641.39;1688380;83;20206;-76
2021/07/30 01:02:18;;;;;;;;;;;;;;;21.13;61.32;99638.54;1690705;83;20141;-76
2021/07/30 01:04:45;;;;;;;;;;;;;;;21.16;61.12;99632.69;1696013;84;20186;-76
2021/07/30 01:07:12;;;;;;;;;;;;;;;21.27;61.09;99634.21;1695107;84;20174;-76
2021/07/30 01:09:38;;;;;;;;;;;;;;;21.30;60.89;99633.73;1692614;83;21081;-78
2021/07/30 01:12:06;;;;;;;;;;;;;;;21.28;61.28;99637.20;1692669;83;20268;-77
2021/07/30 01:14:31;;;;;;;;;;;;;;;21.29;61.03;99628.90;1663139;83;20499;-77
2021/07/30 01:17:00;;;;;;;;;;;;;;;21.30;60.73;99622.48;1694001;84;20142;-77
2021/07/30 01:19:28;;;;;;;;;;;;;;;21.29;60.30;99626.75;1693343;84;20195;-77
2021/07/30 01:21:57;;;;;;;;;;;;;;;21.32;60.12;99617.67;1696265;83;20967;-77
2021/07/30 01:24:24;;;;;;;;;;;;;;;21.33;60.16;99621.16;1695220;83;20578;-77
2021/07/30 01:26:53;;;;;;;;;;;;;;;21.29;60.20;99621.38;1694015;83;20176;-76
2021/07/30 01:29:18;;;;;;;;;;;;;;;21.29;59.93;99621.38;1693474;83;20130;-77
2021/07/30 01:31:44;;;;;;;;;;;;;;;21.15;60.18;99612.25;1695092;83;20166;-76
2021/07/30 01:34:10;;;;;;;;;;;;;;;21.26;60.34;99616.48;1694557;84;21089;-77
2021/07/30 01:36:35;;;;;;;;;;;;;;;21.28;60.30;99613.03;1693581;83;20142;-77
2021/07/30 01:39:01;;;;;;;;;;;;;;;21.36;59.56;99618.00;1684000;83;20262;-77
2021/07/30 01:41:28;;;;;;;;;;;;;;;21.27;59.82;99618.09;1693096;83;20126;-77
2021/07/30 01:43:53;;;;;;;;;;;;;;;21.30;59.99;99609.56;1691798;84;20099;-76
2021/07/30 01:46:20;;;;;;;;;;;;;;;21.39;60.00;99606.78;1692651;84;21086;-75
2021/07/30 01:48:46;;;;;;;;;;;;;;;21.41;59.58;99617.28;1662373;84;20182;-76
2021/07/30 01:51:11;;;;;;;;;;;;;;;21.32;60.34;99614.98;1682610;83;20697;-76
2021/07/30 01:53:37;;;;;;;;;;;;;;;21.36;59.98;99615.31;1685551;84;20338;-77
2021/07/30 01:56:05;;;;;;;;;;;;;;;21.23;60.46;99614.28;1685118;84;20622;-76
2021/07/30 01:58:35;;;;;;;;;;;;;;;21.34;60.68;99615.55;1688362;84;21914;-76
2021/07/30 02:01:01;;;;;;;;;;;;;;;21.28;60.62;99613.03;1691143;83;20153;-76
2021/07/30 02:03:27;;;;;;;;;;;;;;;21.16;60.78;99613.89;1690124;83;20143;-77
2021/07/30 02:05:52;;;;;;;;;;;;;;;21.09;61.23;99618.58;1693428;84;20154;-77
2021/07/30 02:08:18;;;;;;;;;;;;;;;21.18;61.21;99610.14;1690889;84;20177;-75
2021/07/30 02:10:46;;;;;;;;;;;;;;;21.24;61.29;99613.20;1697174;83;21281;-77
2021/07/30 02:15:55;;;;;;;;;;;;;;;21.29;61.51;99610.64;1695519;84;20144;-77
2021/07/30 02:18:21;;;;;;;;;;;;;;;21.20;61.86;99612.08;1694677;84;20127;-77
2021/07/30 02:20:46;;;;;;;;;;;;;;;21.16;62.19;99608.52;1697722;84;20146;-77
2021/07/30 02:23:12;;;;;;;;;;;;;;;21.08;62.46;99614.25;1658472;84;22000;-77
2021/07/30 02:25:37;;;;;;;;;;;;;;;21.14;62.32;99615.98;1688690;84;20144;-78
2021/07/30 02:28:03;;;;;;;;;;;;;;;21.09;62.64;99617.23;1683551;83;20646;-77
2021/07/30 02:30:29;;;;;;;;;;;;;;;21.13;62.49;99618.40;1694255;83;20160;-78
2021/07/30 02:32:54;;;;;;;;;;;;;;;21.13;62.44;99619.74;1696748;83;20146;-77
2021/07/30 02:35:20;;;;;;;;;;;;;;;21.16;62.46;99613.89;1696145;83;21112;-77
2021/07/30 02:37:45;;;;;;;;;;;;;;;21.21;62.21;99613.17;1690330;83;20169;-77
2021/07/30 02:40:12;;;;;;;;;;;;;;;21.15;62.19;99608.22;1690969;83;20147;-77
2021/07/30 02:42:38;;;;;;;;;;;;;;;21.13;62.50;99606.83;1693150;84;20129;-78
2021/07/30 02:45:05;;;;;;;;;;;;;;;21.08;62.33;99609.42;1688565;83;20194;-78
2021/07/30 02:47:31;;;;;;;;;;;;;;;21.04;62.58;99605.06;1695027;84;21062;-78
2021/07/30 02:49:56;;;;;;;;;;;;;;;21.04;62.41;99607.75;1694520;83;20154;-77
2021/07/30 02:52:22;;;;;;;;;;;;;;;20.93;62.80;99604.58;1690688;84;20165;-78
2021/07/30 02:54:48;;;;;;;;;;;;;;;20.87;63.19;99609.56;1689641;84;20518;-78
2021/07/30 02:57:15;;;;;;;;;;;;;;;20.70;63.72;99612.96;1693762;83;20188;-77
2021/07/30 02:59:41;;;;;;;;;;;;;;;20.75;63.61;99611.72;1693796;83;20134;-77
2021/07/30 03:02:06;;;;;;;;;;;;;;;20.72;63.95;99612.19;1691161;83;20240;-77
2021/07/30 03:04:32;;;;;;;;;;;;;;;20.58;64.39;99617.50;1688829;84;20462;-77
2021/07/30 03:06:59;;;;;;;;;;;;;;;20.44;64.90;99614.24;1696447;84;20110;-76
2021/07/30 03:09:27;;;;;;;;;;;;;;;20.34;65.17;99613.50;1696266;83;20127;-77
2021/07/30 03:11:52;;;;;;;;;;;;;;;20.33;65.36;99618.56;1690568;83;20173;-77
2021/07/30 03:14:23;;;;;;;;;;;;;;;20.15;66.00;99622.69;1695377;84;20204;-76
2021/07/30 03:16:50;;;;;;;;;;;;;;;20.22;66.20;99618.05;1692948;83;21000;-75
2021/07/30 03:19:16;;;;;;;;;;;;;;;20.35;65.79;99613.77;1693159;83;20318;-76
2021/07/30 03:21:43;;;;;;;;;;;;;;;20.30;66.03;99613.66;1694856;83;20192;-76
2021/07/30 03:24:14;;;;;;;;;;;;;;;20.45;65.94;99619.37;1694118;84;21300;-76
2021/07/30 03:26:40;;;;;;;;;;;;;;;20.32;66.41;99620.94;1697510;83;20150;-76
2021/07/30 03:29:08;;;;;;;;;;;;;;;20.33;66.52;99618.56;1661171;84;20450;-76
2021/07/30 03:31:34;;;;;;;;;;;;;;;20.25;66.96;99627.77;1694282;84;20219;-75
2021/07/30 03:33:59;;;;;;;;;;;;;;;20.27;67.01;99620.83;1684817;84;20488;-75
2021/07/30 03:36:27;;;;;;;;;;;;;;;20.23;67.11;99631.75;1684092;83;21225;-76
2021/07/30 03:38:53;;;;;;;;;;;;;;;20.21;67.04;99625.78;1688189;84;20184;-74
2021/07/30 03:41:18;;;;;;;;;;;;;;;20.25;67.44;99618.92;1684647;84;20747;-76
2021/07/30 03:43:44;;;;;;;;;;;;;;;20.24;67.51;99617.27;1694344;83;20246;-77
2021/07/30 03:46:09;;;;;;;;;;;;;;;20.29;67.59;99622.78;1692419;83;20141;-77
2021/07/30 03:48:36;;;;;;;;;;;;;;;20.29;67.88;99622.78;1662759;84;22580;-76
2021/07/30 03:51:02;;;;;;;;;;;;;;;20.37;67.66;99625.10;1687891;84;20184;-77
2021/07/30 03:53:28;;;;;;;;;;;;;;;20.31;67.21;99624.69;1692912;84;20257;-76
2021/07/30 03:55:53;;;;;;;;;;;;;;;20.26;67.82;99620.56;1692542;83;20154;-77
2021/07/30 03:58:19;;;;;;;;;;;;;;;20.45;67.25;99621.25;1692788;84;20146;-77
2021/07/30 04:00:44;;;;;;;;;;;;;;;20.43;67.12;99618.80;1696204;83;20583;-76
2021/07/30 04:03:10;;;;;;;;;;;;;;;20.23;67.96;99614.33;1696051;83;20194;-76
2021/07/30 04:05:35;;;;;;;;;;;;;;;20.37;67.74;99618.90;1693553;83;20175;-76
2021/07/30 04:08:04;;;;;;;;;;;;;;;20.42;67.42;99618.50;1693828;83;20399;-77
2021/07/30 04:10:29;;;;;;;;;;;;;;;20.44;67.00;99619.07;1688702;83;20188;-76
2021/07/30 04:12:56;;;;;;;;;;;;;;;20.20;67.32;99634.90;1696284;83;21084;-76
2021/07/30 04:15:22;;;;;;;;;;;;;;;20.22;67.31;99632.79;1691553;83;20695;-77
2021/07/30 04:17:50;;;;;;;;;;;;;;;19.96;67.98;99632.16;1695388;83;20189;-76
2021/07/30 04:20:17;;;;;;;;;;;;;;;19.97;68.28;99627.64;1695476;83;20177;-77
2021/07/30 04:22:44;;;;;;;;;;;;;;;19.78;68.83;99633.58;1694870;83;20197;-77
2021/07/30 04:25:10;;;;;;;;;;;;;;;19.88;68.54;99627.15;1692956;83;21143;-76
2021/07/30 04:27:36;;;;;;;;;;;;;;;19.89;69.08;99634.16;1696450;83;20192;-76
2021/07/30 04:30:02;;;;;;;;;;;;;;;19.94;68.35;99638.83;1688219;83;20228;-76
2021/07/30 04:32:29;;;;;;;;;;;;;;;19.98;67.99;99644.83;1690994;83;20134;-77
2021/07/30 04:34:55;;;;;;;;;;;;;;;20.06;68.12;99643.14;1690887;84;20151;-76
2021/07/30 04:37:21;;;;;;;;;;;;;;;20.13;68.09;99642.22;1688239;83;21110;-76
2021/07/30 04:39:47;;;;;;;;;;;;;;;20.26;67.73;99641.48;1689475;83;20131;-77
2021/07/30 04:42:14;;;;;;;;;;;;;;;20.39;67.25;99636.40;1689309;84;20142;-77
2021/07/30 04:44:42;;;;;;;;;;;;;;;20.42;66.62;99635.94;1694111;84;20284;-76
2021/07/30 04:47:09;;;;;;;;;;;;;;;20.38;66.35;99632.08;1695427;83;20484;-77
2021/07/30 04:49:35;;;;;;;;;;;;;;;20.18;66.91;99634.30;1693926;83;20595;-77
2021/07/30 04:52:01;;;;;;;;;;;;;;;20.28;66.95;99642.59;1692892;84;20223;-77
2021/07/30 04:54:27;;;;;;;;;;;;;;;20.39;66.81;99639.08;1692253;84;20133;-77
2021/07/30 04:56:53;;;;;;;;;;;;;;;20.38;66.11;99635.30;1692500;84;20472;-77
2021/07/30 04:59:19;;;;;;;;;;;;;;;20.55;65.97;99645.59;1658063;83;20220;-77
2021/07/30 05:01:46;;;;;;;;;;;;;;;20.57;65.75;99635.97;1695693;83;21053;-77
2021/07/30 05:04:11;;;;;;;;;;;;;;;20.59;65.68;99639.26;1696887;83;20258;-77
2021/07/30 05:06:37;;;;;;;;;;;;;;;20.63;65.80;99641.74;1692806;84;20478;-76
2021/07/30 05:09:03;;;;;;;;;;;;;;;20.84;65.56;99640.36;1691074;83;20138;-76
2021/07/30 05:11:30;;;;;;;;;;;;;;;20.80;65.51;99642.70;1694118;83;20157;-77
2021/07/30 05:13:57;;;;;;;;;;;;;;;20.93;65.32;99642.16;1692425;83;21961;-77
2021/07/30 05:16:23;;;;;;;;;;;;;;;21.11;64.55;99637.94;1689300;83;20253;-77
2021/07/30 05:18:49;;;;;;;;;;;;;;;21.25;63.87;99633.64;1690094;84;20455;-79
2021/07/30 05:21:16;;;;;;;;;;;;;;;21.30;62.95;99641.79;1689954;83;20188;-76
2021/07/30 05:23:42;;;;;;;;;;;;;;;21.36;62.76;99636.00;1656044;84;20230;-77
2021/07/30 05:26:09;;;;;;;;;;;;;;;21.31;62.81;99636.72;1658188;84;21184;-77
2021/07/30 05:28:37;;;;;;;;;;;;;;;21.25;62.50;99634.98;1691762;83;20167;-77
2021/07/30 05:31:02;;;;;;;;;;;;;;;21.32;62.43;99634.33;1693187;83;20118;-77
2021/07/30 05:33:28;;;;;;;;;;;;;;;21.37;62.77;99632.27;1665226;84;21344;-77
2021/07/30 05:35:55;;;;;;;;;;;;;;;21.38;62.56;99634.71;1698360;82;20214;-77
2021/07/30 05:38:21;;;;;;;;;;;;;;;21.46;62.02;99627.60;1693257;83;20704;-77
2021/07/30 05:40:47;;;;;;;;;;;;;;;21.42;62.08;99629.13;1657503;84;20592;-77
2021/07/30 05:43:14;;;;;;;;;;;;;;;21.21;62.92;99627.11;1693488;84;20177;-76
2021/07/30 05:45:41;;;;;;;;;;;;;;;21.14;63.59;99626.72;1660408;84;20923;-76
2021/07/30 05:48:07;;;;;;;;;;;;;;;21.21;62.55;99635.17;1698359;83;20311;-76
2021/07/30 05:50:33;;;;;;;;;;;;;;;21.37;62.78;99629.58;1694096;83;21179;-78
2021/07/30 05:52:59;;;;;;;;;;;;;;;21.31;62.83;99632.16;1693258;84;20227;-77
2021/07/30 05:55:24;;;;;;;;;;;;;;;21.41;62.20;99633.40;1693395;83;20201;-76
2021/07/30 05:57:50;;;;;;;;;;;;;;;21.50;62.44;99633.33;1674499;84;20234;-76
2021/07/30 06:00:16;;;;;;;;;;;;;;;21.63;62.00;99638.95;1676619;84;21329;-77
2021/07/30 06:02:41;;;;;;;;;;;;;;;21.76;61.84;99627.87;1675355;84;21785;-76
2021/07/30 06:05:08;;;;;;;;;;;;;;;21.74;62.02;99625.97;1678659;84;20134;-75
2021/07/30 06:07:35;;;;;;;;;;;;;;;21.82;61.94;99628.25;1683248;85;20182;-76
2021/07/30 06:10:00;;;;;;;;;;;;;;;22.09;61.66;99631.63;1675135;84;20211;-75
2021/07/30 06:12:28;;;;;;;;;;;;;;;22.09;60.22;99637.01;1679646;84;20732;-75
2021/07/30 06:14:53;;;;;;;;;;;;;;;22.15;59.44;99636.03;1671978;85;21118;-77
2021/07/30 06:17:19;;;;;;;;;;;;;;;22.14;59.11;99638.97;1676769;85;20606;-75
2021/07/30 06:19:44;;;;;;;;;;;;;;;22.18;58.83;99635.55;1679383;84;20134;-75
2021/07/30 06:22:10;;;;;;;;;;;;;;;22.31;58.55;99633.61;1680568;84;20138;-75
2021/07/30 06:24:38;;;;;;;;;;;;;;;22.37;58.72;99632.63;1675566;85;20301;-76
2021/07/30 06:27:04;;;;;;;;;;;;;;;22.20;59.23;99648.74;1677926;85;20207;-78
2021/07/30 06:29:30;;;;;;;;;;;;;;;22.17;59.47;99642.00;1679452;84;20327;-76
2021/07/30 06:31:57;;;;;;;;;;;;;;;22.41;58.81;99645.88;1674692;84;20174;-75
2021/07/30 06:34:22;;;;;;;;;;;;;;;22.39;58.08;99642.09;1680371;84;20169;-76
2021/07/30 06:36:50;;;;;;;;;;;;;;;22.40;58.04;99639.69;1676216;84;20191;-77
2021/07/30 06:39:17;;;;;;;;;;;;;;;22.49;58.19;99636.03;1672602;84;21116;-76
2021/07/30 06:41:43;;;;;;;;;;;;;;;22.67;57.47;99637.63;1684857;83;20676;-76
2021/07/30 06:44:09;;;;;;;;;;;;;;;22.71;56.91;99641.44;1679375;85;20178;-75
2021/07/30 06:46:35;;;;;;;;;;;;;;;22.74;56.98;99646.32;1680395;85;20182;-76
2021/07/30 06:49:00;;;;;;;;;;;;;;;22.82;56.69;99645.08;1682850;84;20444;-77
2021/07/30 06:51:26;;;;;;;;;;;;;;;22.95;56.50;99646.61;1675138;84;21096;-76
2021/07/30 06:53:52;;;;;;;;;;;;;;;22.96;56.41;99634.75;1676674;84;20327;-77
2021/07/30 06:56:19;;;;;;;;;;;;;;;23.08;55.88;99634.63;1675722;84;20350;-76
2021/07/30 06:58:46;;;;;;;;;;;;;;;23.11;55.47;99632.27;1666790;85;20238;-77
2021/07/30 07:01:13;;;;;;;;;;;;;;;23.23;55.67;99634.84;1635037;85;20218;-76
2021/07/30 07:03:42;;;;;;;;;;;;;;;23.38;55.43;99632.02;1662334;84;21190;-75
2021/07/30 07:06:12;;;;;;;;;;;;;;;23.32;54.29;99626.30;1663883;85;20184;-76
2021/07/30 07:08:38;;;;;;;;;;;;;;;23.37;52.87;99635.27;1669842;84;20184;-78
2021/07/30 07:11:04;;;;;;;;;;;;;;;23.33;50.94;99633.33;1643730;84;20121;-77
2021/07/30 07:13:29;;;;;;;;;;;;;;;23.50;51.25;99631.34;1670258;84;20272;-77
2021/07/30 07:15:55;;;;;;;;;;;;;;;23.60;51.79;99635.48;1667278;84;21098;-76
2021/07/30 07:18:21;;;;;;;;;;;;;;;23.72;51.59;99631.27;1662118;84;20156;-75
2021/07/30 07:20:47;;;;;;;;;;;;;;;23.92;51.73;99630.66;1671340;85;20504;-75
2021/07/30 07:23:12;;;;;;;;;;;;;;;24.08;50.76;99628.09;1668860;84;20208;-74
2021/07/30 07:25:38;;;;;;;;;;;;;;;24.16;50.59;99620.85;1670906;84;20273;-75
2021/07/30 07:28:04;;;;;;;;;;;;;;;24.22;49.99;99623.06;1671837;84;21113;-76
2021/07/30 07:30:30;;;;;;;;;;;;;;;24.15;49.65;99622.75;1670691;84;20136;-77
2021/07/30 07:32:55;;;;;;;;;;;;;;;24.18;49.81;99626.82;1670306;85;20216;-75
2021/07/30 07:35:21;;;;;;;;;;;;;;;24.11;49.69;99623.52;1669932;84;20494;-76
2021/07/30 07:37:47;;;;;;;;;;;;;;;24.19;49.84;99629.78;1669659;84;20286;-77
2021/07/30 07:40:13;;;;;;;;;;;;;;;24.20;49.64;99624.67;1670627;84;21034;-75
2021/07/30 07:42:40;;;;;;;;;;;;;;;24.32;49.83;99622.59;1669972;85;20307;-75
2021/07/30 07:45:08;;;;;;;;;;;;;;;24.40;49.42;99621.84;1669672;85;20191;-77
2021/07/30 07:47:33;;;;;;;;;;;;;;;24.45;49.85;99619.16;1669751;84;20721;-75
2021/07/30 07:50:04;;;;;;;;;;;;;;;24.46;49.13;99624.30;1671602;85;20323;-75
2021/07/30 07:52:35;;;;;;;;;;;;;;;24.37;48.28;99628.02;1665505;85;22145;-74
2021/07/30 07:55:04;;;;;;;;;;;;;;;24.45;48.21;99622.66;1667310;84;20257;-75
2021/07/30 07:57:30;;;;;;;;;;;;;;;24.50;47.57;99629.98;1679249;84;20193;-75
2021/07/30 07:59:56;;;;;;;;;;;;;;;24.51;46.98;99622.16;1686348;84;20666;-76
2021/07/30 08:02:21;;;;;;;;;;;;;;;24.33;46.53;99624.23;1694849;83;20255;-77
2021/07/30 08:04:49;;;;;;;;;;;;;;;24.36;46.41;99617.48;1688920;84;21142;-76
2021/07/30 08:07:17;;;;;;;;;;;;;;;24.40;46.47;99620.48;1692169;84;20193;-77
2021/07/30 08:09:45;;;;;;;;;;;;;;;24.52;45.44;99617.05;1693569;83;20154;-76
2021/07/30 08:12:14;;;;;;;;;;;;;;;24.70;45.94;99619.86;1687516;83;20195;-77
2021/07/30 08:14:39;;;;;;;;;;;;;;;24.80;45.88;99617.77;1694237;83;20138;-75
2021/07/30 08:17:05;;;;;;;;;;;;;;;24.78;45.97;99613.14;1696635;83;21918;-75
2021/07/30 08:19:35;;;;;;;;;;;;;;;24.84;45.60;99626.94;1691823;84;20221;-76
2021/07/30 08:22:01;;;;;;;;;;;;;;;24.66;45.48;99620.93;1653832;84;20237;-77
2021/07/30 08:24:28;;;;;;;;;;;;;;;24.43;45.54;99618.62;1692289;83;20543;-76
2021/07/30 08:26:57;;;;;;;;;;;;;;;24.63;44.65;99622.80;1657492;84;20521;-77
2021/07/30 08:29:25;;;;;;;;;;;;;;;24.39;44.96;99615.61;1693122;84;20215;-76
2021/07/30 08:31:50;;;;;;;;;;;;;;;24.44;43.55;99628.32;1690226;83;20267;-75
2021/07/30 08:34:16;;;;;;;;;;;;;;;24.47;43.76;99623.23;1690595;84;20743;-78
2021/07/30 08:36:42;;;;;;;;;;;;;;;24.50;43.62;99625.41;1691214;83;20622;-74
2021/07/30 08:39:08;;;;;;;;;;;;;;;24.42;43.67;99625.88;1688639;84;20173;-76
2021/07/30 08:41:36;;;;;;;;;;;;;;;24.54;42.78;99614.89;1691498;83;21223;-76
2021/07/30 08:44:01;;;;;;;;;;;;;;;24.56;43.42;99616.78;1686616;83;20158;-76
2021/07/30 08:46:29;;;;;;;;;;;;;;;24.60;44.08;99629.27;1691378;83;20158;-76
2021/07/30 08:48:55;;;;;;;;;;;;;;;24.53;43.70;99617.31;1693412;83;20171;-75
2021/07/30 08:51:21;;;;;;;;;;;;;;;24.64;43.60;99620.39;1691208;83;20265;-77
2021/07/30 08:53:47;;;;;;;;;;;;;;;24.69;42.48;99619.05;1689585;83;21072;-77
2021/07/30 08:56:16;;;;;;;;;;;;;;;24.66;42.28;99619.58;1688584;83;20149;-76
2021/07/30 08:58:45;;;;;;;;;;;;;;;24.60;42.86;99612.53;1666278;84;20260;-75
2021/07/30 09:01:12;;;;;;;;;;;;;;;24.67;43.27;99611.77;1683551;83;20653;-75
2021/07/30 09:03:48;;;;;;;;;;;;;;;24.68;43.12;99622.82;1683645;84;20208;-76
2021/07/30 09:06:23;;;;;;;;;;;;;;;24.80;43.45;99611.02;1678337;84;21153;-76
2021/07/30 09:09:00;;;;;;;;;;;;;;;25.07;43.33;99607.57;1682381;84;20143;-77
2021/07/30 09:11:27;;;;;;;;;;;;;;;25.16;43.58;99604.37;1683010;84;20131;-77
2021/07/30 09:13:53;;;;;;;;;;;;;;;25.08;44.02;99615.95;1681718;84;20664;-76
2021/07/30 09:16:18;;;;;;;;;;;;;;;24.94;43.44;99607.25;1683458;84;20170;-76
2021/07/30 09:18:46;;;;;;;;;;;;;;;24.80;43.16;99598.86;1685285;84;21087;-77
2021/07/30 09:21:29;;;;;;;;;;;;;;;24.95;43.04;99597.53;1684851;84;20675;-76
2021/07/30 09:24:12;;;;;;;;;;;;;;;24.94;43.35;99598.63;1682788;84;20171;-78
2021/07/30 09:26:56;;;;;;;;;;;;;;;25.03;42.78;99592.98;1683611;83;20155;-76
2021/07/30 09:29:24;;;;;;;;;;;;;;;25.05;43.99;99601.62;1681849;84;20166;-77
2021/07/30 09:31:57;;;;;;;;;;;;;;;24.87;43.59;99592.66;1657955;84;21980;-76
2021/07/30 09:34:28;;;;;;;;;;;;;;;24.94;43.67;99599.98;1684711;85;20325;-75
2021/07/30 09:37:08;;;;;;;;;;;;;;;25.02;43.59;99591.36;1681744;84;20159;-76
2021/07/30 09:39:36;;;;;;;;;;;;;;;24.93;44.01;99586.19;1685916;84;20321;-76
2021/07/30 09:42:13;;;;;;;;;;;;;;;24.85;42.82;99594.81;1682457;84;20211;-78
2021/07/30 09:44:48;;;;;;;;;;;;;;;24.98;43.61;99588.91;1681901;84;21912;-75
2021/07/30 09:47:24;;;;;;;;;;;;;;;25.09;43.58;99590.58;1681595;84;20445;-74
2021/07/30 09:49:55;;;;;;;;;;;;;;;25.07;42.67;99588.66;1683925;84;20202;-75
2021/07/30 09:52:22;;;;;;;;;;;;;;;24.87;42.63;99591.30;1682232;84;20274;-75
2021/07/30 09:54:54;;;;;;;;;;;;;;;25.06;43.22;99595.68;1682643;84;20175;-74
2021/07/30 09:57:33;;;;;;;;;;;;;;;25.16;43.13;99580.05;1685738;83;22583;-75
2021/07/30 10:00:03;;;;;;;;;;;;;;;25.30;43.02;99591.20;1693791;83;20242;-76
2021/07/30 10:02:33;;;;;;;;;;;;;;;25.27;43.20;99578.98;1660832;83;34093;-75
2021/07/30 10:05:01;;;;;;;;;;;;;;;25.30;42.92;99587.94;1697642;83;20171;-77
2021/07/30 10:07:28;;;;;;;;;;;;;;;25.35;43.65;99570.38;1695236;83;20151;-75
2021/07/30 10:10:01;;;;;;;;;;;;;;;25.39;43.89;99587.69;1692489;83;21081;-77
2021/07/30 10:12:22;;;;;;;;;;;;;;;25.30;41.88;99567.67;1664961;83;20131;-75
2021/07/30 10:14:48;;;;;;;;;;;;;;;25.35;42.31;99573.08;1689287;84;20188;-75
2021/07/30 10:17:15;;;;;;;;;;;;;;;25.46;43.39;99558.23;1692542;83;20154;-77
2021/07/30 10:19:41;;;;;;;;;;;;;;;25.46;43.93;99564.98;1694585;83;20209;-76
2021/07/30 10:22:10;;;;;;;;;;;;;;;25.39;43.91;99557.16;1689844;83;22347;-74
2021/07/30 10:24:41;;;;;;;;;;;;;;;25.50;44.02;99556.63;1690071;84;20162;-75
2021/07/30 10:27:06;;;;;;;;;;;;;;;25.54;43.57;99550.41;1691031;84;20210;-74
2021/07/30 10:30:04;;;;;;;;;;;;;;;25.63;41.76;99541.19;1689881;83;20454;-73
2021/07/30 10:32:47;;;;;;;;;;;;;;;25.66;41.70;99523.63;1692028;83;20194;-79
2021/07/30 10:35:21;;;;;;;;;;;;;;;25.75;42.32;99533.61;1691126;83;21994;-80
2021/07/30 10:37:48;;;;;;;;;;;;;;;25.73;42.85;99551.18;1690713;83;20177;-76
2021/07/30 10:40:21;;;;;;;;;;;;;;;25.66;43.10;99537.94;1695210;83;20182;-80
2021/07/30 10:43:09;;;;;;;;;;;;;;;25.58;42.54;99547.96;1692901;83;20184;-75
2021/07/30 10:45:41;;;;;;;;;;;;;;;25.58;42.84;99531.73;1658724;83;20560;-76
2021/07/30 10:48:23;;;;;;;;;;;;;;;25.57;42.97;99542.27;1662463;84;21026;-73
2021/07/30 10:50:55;;;;;;;;;;;;;;;25.32;43.68;99527.66;1692885;83;20211;-77
2021/07/30 10:53:39;;;;;;;;;;;;;;;25.42;43.61;99523.63;1693660;83;20153;-76
2021/07/30 10:56:09;;;;;;;;;;;;;;;25.36;43.31;99535.52;1692594;83;20281;-74
2021/07/30 10:58:45;;;;;;;;;;;;;;;25.17;43.68;99526.27;1686594;83;20127;-73
2021/07/30 11:01:19;;;;;;;;;;;;;;;25.34;43.53;99530.93;1691202;83;22217;-77
2021/07/30 11:03:56;;;;;;;;;;;;;;;25.32;43.75;99527.66;1683481;84;20474;-79
2021/07/30 11:06:27;;;;;;;;;;;;;;;25.21;43.49;99517.35;1691789;83;20225;-75
2021/07/30 11:09:05;;;;;;;;;;;;;;;25.36;43.31;99509.84;1692546;83;20482;-77
2021/07/30 11:11:51;;;;;;;;;;;;;;;25.44;43.38;99513.34;1692657;83;20179;-74
2021/07/30 11:14:28;;;;;;;;;;;;;;;25.40;43.78;99516.34;1689458;83;21346;-74
2021/07/30 11:16:56;;;;;;;;;;;;;;;25.63;43.27;99500.63;1691215;83;20210;-76
2021/07/30 11:19:26;;;;;;;;;;;;;;;25.61;43.90;99502.80;1696261;84;20154;-75
2021/07/30 11:21:53;;;;;;;;;;;;;;;25.74;43.50;99504.94;1692789;83;20114;-73
2021/07/30 11:24:19;;;;;;;;;;;;;;;25.85;42.84;99507.63;1696070;83;20195;-79
2021/07/30 11:26:46;;;;;;;;;;;;;;;25.87;42.81;99502.23;1692204;83;21157;-74
2021/07/30 11:29:17;;;;;;;;;;;;;;;25.82;42.57;99500.06;1694121;83;20578;-75
2021/07/30 11:31:55;;;;;;;;;;;;;;;25.85;42.50;99500.88;1696617;83;20201;-74
2021/07/30 11:34:28;;;;;;;;;;;;;;;25.94;42.31;99489.77;1685629;83;20156;-76
2021/07/30 11:36:54;;;;;;;;;;;;;;;25.98;41.32;99484.11;1696888;82;20275;-75
2021/07/30 11:39:19;;;;;;;;;;;;;;;25.92;40.67;99483.27;1692892;83;21955;-74
2021/07/30 11:41:49;;;;;;;;;;;;;;;25.78;40.80;99470.86;1693973;82;20132;-75
2021/07/30 11:44:14;;;;;;;;;;;;;;;26.02;40.85;99475.69;1667311;83;20452;-73
2021/07/30 11:46:40;;;;;;;;;;;;;;;25.86;41.67;99490.33;1694069;83;20145;-78
2021/07/30 11:49:07;;;;;;;;;;;;;;;25.68;41.51;99493.85;1693061;82;20941;-75
2021/07/30 11:51:33;;;;;;;;;;;;;;;25.67;41.79;99486.84;1696869;82;20503;-78
2021/07/30 11:54:01;;;;;;;;;;;;;;;25.91;41.40;99472.73;1663661;84;20146;-75
2021/07/30 11:56:28;;;;;;;;;;;;;;;26.08;41.11;99473.23;1681746;83;20344;-75
2021/07/30 11:58:59;;;;;;;;;;;;;;;26.12;41.12;99483.79;1659497;84;20180;-80
2021/07/30 12:01:25;;;;;;;;;;;;;;;26.01;40.31;99476.80;1677568;85;20187;-77
2021/07/30 12:04:07;;;;;;;;;;;;;;;26.18;40.92;99478.34;1681739;84;21072;-76
2021/07/30 12:06:39;;;;;;;;;;;;;;;26.08;40.14;99477.30;1683189;83;20193;-77
2021/07/30 12:09:08;;;;;;;;;;;;;;;25.93;40.79;99480.02;1680256;84;20226;-76
2021/07/30 12:11:34;;;;;;;;;;;;;;;26.00;40.39;99483.28;1685125;84;20186;-77
2021/07/30 12:13:59;;;;;;;;;;;;;;;26.13;40.40;99460.23;1684985;85;20123;-76
2021/07/30 12:16:25;;;;;;;;;;;;;;;26.26;40.22;99465.62;1682722;84;21076;-76
2021/07/30 12:18:52;;;;;;;;;;;;;;;26.28;40.01;99479.67;1685656;83;20153;-76
2021/07/30 12:21:18;;;;;;;;;;;;;;;26.19;39.65;99475.37;1686606;83;20187;-77
2021/07/30 12:23:43;;;;;;;;;;;;;;;26.47;39.65;99470.38;1685507;83;20611;-76
2021/07/30 12:26:28;;;;;;;;;;;;;;;26.57;39.21;99458.67;1685417;83;20191;-78
2021/07/30 12:28:57;;;;;;;;;;;;;;;26.42;39.46;99464.44;1685076;83;22055;-77
2021/07/30 12:31:24;;;;;;;;;;;;;;;26.41;40.22;99475.00;1685941;83;20502;-75
2021/07/30 12:34:13;;;;;;;;;;;;;;;26.37;40.15;99465.00;1680147;84;20251;-76
2021/07/30 12:36:40;;;;;;;;;;;;;;;26.30;39.61;99474.26;1682639;84;20252;-76
2021/07/30 12:39:06;;;;;;;;;;;;;;;26.48;39.71;99457.91;1683822;84;21005;-76
2021/07/30 12:41:34;;;;;;;;;;;;;;;26.58;39.71;99450.83;1681775;84;21889;-75
2021/07/30 12:44:10;;;;;;;;;;;;;;;26.59;39.46;99444.33;1686591;84;20122;-75
2021/07/30 12:46:39;;;;;;;;;;;;;;;26.84;39.15;99450.95;1683085;84;20200;-74
2021/07/30 12:49:07;;;;;;;;;;;;;;;26.68;38.92;99449.45;1680067;84;20205;-75
2021/07/30 12:51:33;;;;;;;;;;;;;;;26.90;38.76;99449.03;1680579;84;20413;-75
2021/07/30 12:54:10;;;;;;;;;;;;;;;26.89;38.29;99439.83;1684012;84;21100;-76